Guilderland Center, New York
Current Conditions -  °F | °C
As of 5:51 AM on Wednesday 26 Nov 2014 (Local Time) from KALB Reporting Station
Overcast Overcast  
Wind Chill:   Ceiling: 16000
Heat Index:   Visibility: 10mi
Dew Point: -3°   Wind: 6mph
Humidity: 67%   Direction: 290°WNW
Pressure: 30.2"   Gusts: NA
Location:  42.7°N, 73.97°W
Report Text: KALB 261051Z 29005KT 10SM FEW040 OVC160 03/M03 A3020 RMK AO2 SLP228 T00281028
Loading
Personal Weather Stations






























Interactive Weather Map New forecast layout! Learn more

10-Day Weather Forecast

Advertisements
Track Severe Weather on mobile